Time;durP1;ratioP1;P1;durP2;ratioP2;P2;SDS_P1;SDS_P2;PMS_P1;PMS_P2;Temp;Humidity;BMP_temperature;BMP_pressure;BME280_temperature;BME280_humidity;BME280_pressure;Samples;Min_cycle;Max_cycle;Signal;HPM_P1;HPM_P2
2021/07/27 00:00:43;;;;;;;10.95;7.80;;;;;;;18.80;70.44;100364.19;5082507;28;20052;-47
2021/07/27 00:03:10;;;;;;;10.60;7.78;;;;;;;18.82;70.44;100361.78;5082460;28;20044;-47
2021/07/27 00:05:38;;;;;;;11.93;8.18;;;;;;;18.84;70.26;100350.97;5083476;28;20044;-44
2021/07/27 00:08:25;;;;;;;11.45;7.97;;;;;;;18.83;70.34;100352.16;5081517;28;20044;-42
2021/07/27 00:10:53;;;;;;;11.95;8.13;;;;;;;18.73;70.59;100342.59;5082964;28;20068;-45
2021/07/27 00:13:20;;;;;;;13.63;8.68;;;;;;;18.66;70.92;100341.84;5082160;28;20125;-44
2021/07/27 00:15:47;;;;;;;12.93;8.02;;;;;;;18.59;70.99;100342.69;5082205;28;20071;-42
2021/07/27 00:18:14;;;;;;;13.00;8.63;;;;;;;18.60;71.14;100349.09;5082785;28;20044;-49
2021/07/27 00:20:41;;;;;;;11.27;8.10;;;;;;;18.61;71.23;100347.91;5082876;28;20564;-42
2021/07/27 00:23:08;;;;;;;10.98;9.13;;;;;;;18.66;71.32;100347.47;5082595;28;20068;-43
2021/07/27 00:25:35;;;;;;;12.57;9.07;;;;;;;18.58;71.58;100349.53;5082905;28;20057;-50
2021/07/27 00:28:01;;;;;;;12.68;8.10;;;;;;;18.60;71.36;100349.91;5081398;28;20036;-44
2021/07/27 00:30:28;;;;;;;11.50;8.82;;;;;;;18.60;71.39;100346.28;5082443;28;20052;-44
2021/07/27 00:32:55;;;;;;;14.88;9.48;;;;;;;18.54;71.60;100354.31;5082572;28;20050;-49
2021/07/27 00:35:24;;;;;;;15.43;9.63;;;;;;;18.47;71.80;100351.56;5082780;28;20382;-49
2021/07/27 00:38:09;;;;;;;13.00;9.15;;;;;;;18.43;72.11;100345.13;5080646;28;20044;-43
2021/07/27 00:40:38;;;;;;;13.15;9.23;;;;;;;18.36;72.39;100350.78;5081645;28;20052;-47
2021/07/27 00:43:11;;;;;;;13.20;8.10;;;;;;;18.34;72.69;100353.22;5063367;28;20072;-49
2021/07/27 00:45:38;;;;;;;14.07;9.60;;;;;;;18.39;72.46;100343.56;5082567;28;20055;-42
2021/07/27 00:48:05;;;;;;;15.75;8.77;;;;;;;18.42;72.27;100346.38;5082563;28;20058;-44
2021/07/27 00:50:32;;;;;;;12.23;8.65;;;;;;;18.46;72.23;100349.13;5082252;28;20448;-46
2021/07/27 00:53:01;;;;;;;13.98;9.82;;;;;;;18.45;72.32;100348.34;5082079;28;20048;-43
2021/07/27 00:55:30;;;;;;;10.48;8.32;;;;;;;18.41;72.34;100336.34;5082772;28;20048;-43
2021/07/27 00:57:57;;;;;;;12.70;8.23;;;;;;;18.38;72.63;100331.56;5081823;28;20089;-45
2021/07/27 01:00:25;;;;;;;9.43;7.50;;;;;;;18.38;72.73;100337.16;5081904;28;20137;-45
2021/07/27 01:02:53;;;;;;;9.40;7.30;;;;;;;18.38;72.28;100337.16;5082414;28;20047;-48
2021/07/27 01:05:20;;;;;;;11.05;7.55;;;;;;;18.35;72.78;100337.97;5082235;28;20047;-51
2021/07/27 01:07:48;;;;;;;10.10;8.13;;;;;;;18.37;72.65;100332.78;5082001;28;20055;-44
2021/07/27 01:10:16;;;;;;;11.98;7.22;;;;;;;18.36;72.67;100331.16;5081998;28;20488;-44
2021/07/27 01:12:49;;;;;;;10.35;7.38;;;;;;;18.39;72.75;100335.97;5082495;28;20370;-43
2021/07/27 01:15:17;;;;;;;11.95;7.82;;;;;;;18.45;72.34;100344.75;5080658;28;20040;-43
2021/07/27 01:17:45;;;;;;;13.10;7.60;;;;;;;18.46;72.39;100337.91;5081026;28;20048;-43
2021/07/27 01:44:43;;;;;;;11.05;7.75;;;;;;;18.20;72.75;100316.81;5080697;28;20169;-49
2021/07/27 01:47:12;;;;;;;11.52;8.73;;;;;;;18.12;73.14;100312.47;5080490;28;20489;-49
2021/07/27 01:49:40;;;;;;;9.90;7.57;;;;;;;18.06;73.17;100308.47;5081756;28;20051;-43
2021/07/27 01:52:10;;;;;;;10.48;7.80;;;;;;;18.06;73.30;100314.88;5080594;28;20055;-48
2021/07/27 01:54:51;;;;;;;10.38;7.78;;;;;;;18.08;73.25;100306.09;5080157;28;20051;-45
2021/07/27 01:57:19;;;;;;;10.68;8.77;;;;;;;18.08;73.33;100311.69;5080862;28;20374;-44
2021/07/27 01:59:53;;;;;;;13.60;7.82;;;;;;;18.03;73.67;100310.09;5079400;28;20083;-45
2021/07/27 02:02:20;;;;;;;7.38;6.57;;;;;;;18.02;73.54;100314.09;5079836;28;20040;-46
2021/07/27 02:04:47;;;;;;;11.13;7.50;;;;;;;18.06;73.55;100314.06;5080865;28;20396;-43
2021/07/27 02:07:14;;;;;;;9.48;7.00;;;;;;;18.07;73.62;100307.28;5080978;28;20503;-44
2021/07/27 02:09:43;;;;;;;8.88;7.20;;;;;;;18.07;73.56;100312.88;5079679;28;20054;-48
2021/07/27 02:12:18;;;;;;;11.07;7.45;;;;;;;18.07;73.73;100310.88;5080623;28;20404;-44
2021/07/27 02:17:35;;;;;;;9.10;6.95;;;;;;;18.06;73.67;100305.66;5080315;28;20078;-44
2021/07/27 02:20:05;;;;;;;9.50;6.13;;;;;;;18.02;73.79;100291.69;5080563;28;20044;-45
2021/07/27 02:22:33;;;;;;;6.75;5.80;;;;;;;18.02;73.75;100286.09;5080131;28;20386;-46
2021/07/27 02:25:00;;;;;;;5.90;5.03;;;;;;;17.99;73.83;100288.91;5080794;28;20043;-44
2021/07/27 02:27:28;;;;;;;8.02;6.05;;;;;;;17.98;73.63;100287.28;5079373;28;20161;-44
2021/07/27 02:29:57;;;;;;;7.03;5.57;;;;;;;17.95;73.68;100282.53;5079964;28;20119;-45
2021/07/27 02:32:24;;;;;;;7.95;5.35;;;;;;;17.90;74.00;100280.94;5055723;28;20051;-47
2021/07/27 02:34:51;;;;;;;9.15;4.80;;;;;;;17.87;74.03;100283.75;5079473;28;20558;-44
2021/07/27 02:37:18;;;;;;;7.30;5.80;;;;;;;17.88;73.86;100274.13;5080820;28;20047;-43
2021/07/27 02:39:47;;;;;;;7.20;5.60;;;;;;;17.84;73.78;100274.16;5080390;28;20071;-44
2021/07/27 02:42:15;;;;;;;8.38;5.30;;;;;;;17.83;73.90;100283.75;5080178;28;20404;-44
2021/07/27 02:44:41;;;;;;;8.55;4.97;;;;;;;17.81;73.82;100282.56;5081246;28;20067;-45
2021/07/27 02:47:08;;;;;;;7.00;5.93;;;;;;;17.81;73.77;100282.56;5080297;28;20054;-48
2021/07/27 02:49:35;;;;;;;8.07;5.43;;;;;;;17.75;73.78;100292.59;5079504;28;20052;-49
2021/07/27 02:52:02;;;;;;;7.40;6.00;;;;;;;17.70;73.90;100284.59;5080846;28;20043;-43
2021/07/27 02:54:29;;;;;;;7.65;5.53;;;;;;;17.66;74.38;100290.19;5080586;28;20082;-49
2021/07/27 02:56:56;;;;;;;7.13;5.60;;;;;;;17.66;74.01;100295.03;5080844;28;20044;-44
2021/07/27 02:59:23;;;;;;;6.35;5.22;;;;;;;17.68;73.84;100289.81;5079833;28;20075;-43
2021/07/27 03:01:50;;;;;;;8.15;6.05;;;;;;;17.63;73.96;100291.81;5080547;28;20032;-43
2021/07/27 03:04:17;;;;;;;9.05;6.32;;;;;;;17.60;74.11;100289.03;5062566;28;20068;-44
2021/07/27 03:06:53;;;;;;;6.28;5.03;;;;;;;17.58;74.18;100280.22;5081306;28;20055;-45
2021/07/27 03:09:26;;;;;;;7.57;6.25;;;;;;;17.57;74.18;100293.44;5080204;28;20052;-46
2021/07/27 03:11:52;;;;;;;7.25;5.65;;;;;;;17.57;74.34;100285.03;5079825;28;20481;-44
2021/07/27 03:14:19;;;;;;;8.40;6.28;;;;;;;17.55;74.22;100283.84;5080732;28;20044;-44
2021/07/27 03:16:47;;;;;;;9.70;6.40;;;;;;;17.48;74.58;100290.22;5080805;28;20044;-47
2021/07/27 03:19:18;;;;;;;9.65;5.90;;;;;;;17.46;74.84;100281.44;5080759;28;20063;-45
2021/07/27 03:21:45;;;;;;;7.93;6.10;;;;;;;17.51;74.58;100295.00;5079923;28;20036;-44
2021/07/27 03:24:13;;;;;;;8.80;5.97;;;;;;;17.54;74.39;100276.66;5083905;28;20098;-44
2021/07/27 03:26:39;;;;;;;8.55;6.13;;;;;;;17.55;74.40;100289.44;5085002;28;20403;-48
2021/07/27 03:29:07;;;;;;;8.52;6.68;;;;;;;17.51;74.59;100289.41;5083523;28;20051;-48
2021/07/27 03:31:35;;;;;;;7.22;6.43;;;;;;;17.51;74.53;100289.41;5083747;28;20044;-43
2021/07/27 03:34:02;;;;;;;10.95;7.00;;;;;;;17.51;74.67;100295.00;5083568;28;21125;-47
2021/07/27 03:36:30;;;;;;;12.10;7.70;;;;;;;17.51;74.73;100278.22;5083463;28;20043;-48
2021/07/27 03:38:56;;;;;;;11.85;7.13;;;;;;;17.54;74.73;100283.06;5083819;28;20044;-45
2021/07/27 03:41:25;;;;;;;9.40;7.43;;;;;;;17.55;74.94;100273.44;5084123;28;20048;-46
2021/07/27 03:43:52;;;;;;;10.95;6.90;;;;;;;17.56;74.82;100275.03;5084456;28;20058;-49
2021/07/27 03:46:20;;;;;;;11.05;7.00;;;;;;;17.61;74.77;100280.22;5083440;28;20060;-45
2021/07/27 03:48:47;;;;;;;10.27;7.43;;;;;;;17.63;74.77;100277.81;5083647;28;20479;-44
2021/07/27 03:51:15;;;;;;;8.38;6.45;;;;;;;17.58;75.00;100271.81;5083715;28;20051;-44
2021/07/27 03:53:42;;;;;;;8.18;7.30;;;;;;;17.60;74.81;100269.44;5084167;28;20043;-44
2021/07/27 03:56:12;;;;;;;9.65;6.47;;;;;;;17.57;75.23;100271.03;5083733;28;20378;-44
2021/07/27 03:58:43;;;;;;;9.77;6.78;;;;;;;17.62;74.79;100270.63;5083420;28;20408;-44
2021/07/27 04:01:10;;;;;;;9.73;7.55;;;;;;;17.62;75.17;100264.22;5083410;28;20118;-43
2021/07/27 04:03:37;;;;;;;10.05;6.75;;;;;;;17.62;75.17;100269.81;5082375;28;20062;-49
2021/07/27 04:06:04;;;;;;;10.02;7.43;;;;;;;17.61;75.38;100260.63;5084360;28;20051;-43
2021/07/27 04:08:31;;;;;;;7.68;6.88;;;;;;;17.65;75.36;100260.63;5084462;28;20044;-44
2021/07/27 04:11:05;;;;;;;10.27;7.40;;;;;;;17.69;75.24;100261.41;5082770;28;20098;-46
2021/07/27 04:13:33;;;;;;;10.75;7.15;;;;;;;17.71;74.98;100252.63;5084001;28;20044;-44
2021/07/27 04:16:02;;;;;;;8.02;6.50;;;;;;;17.71;75.01;100247.81;5082926;28;20048;-44
2021/07/27 04:18:29;;;;;;;9.70;7.25;;;;;;;17.73;74.94;100253.00;5081780;28;20519;-45
2021/07/27 04:21:01;;;;;;;11.93;6.65;;;;;;;17.70;75.13;100245.41;5083533;28;20043;-47
2021/07/27 04:23:28;;;;;;;7.20;6.38;;;;;;;17.72;75.01;100248.59;5083062;28;20131;-47
2021/07/27 04:25:55;;;;;;;7.68;5.72;;;;;;;17.73;74.84;100255.78;5083185;28;20504;-45
2021/07/27 04:28:21;;;;;;;7.65;6.00;;;;;;;17.73;74.92;100253.00;5082319;28;20068;-49
2021/07/27 04:30:49;;;;;;;11.05;6.68;;;;;;;17.75;74.84;100244.97;5083316;28;20142;-47
2021/07/27 04:33:17;;;;;;;7.07;5.85;;;;;;;17.72;74.89;100249.38;5082206;28;20051;-44
2021/07/27 04:35:44;;;;;;;9.00;7.00;;;;;;;17.69;74.85;100238.19;5082636;28;20056;-49
2021/07/27 04:38:10;;;;;;;8.52;6.72;;;;;;;17.64;74.93;100245.81;5082024;28;20043;-44
2021/07/27 04:40:37;;;;;;;7.57;6.78;;;;;;;17.59;74.99;100243.44;5081831;28;20460;-44
2021/07/27 04:43:04;;;;;;;7.75;6.72;;;;;;;17.60;74.89;100242.25;5082862;28;20094;-43
2021/07/27 04:45:31;;;;;;;8.95;6.63;;;;;;;17.57;74.95;100245.84;5082284;28;20050;-44
2021/07/27 04:47:58;;;;;;;10.70;6.10;;;;;;;17.57;74.96;100248.66;5082504;28;20143;-47
2021/07/27 04:50:25;;;;;;;10.40;7.35;;;;;;;17.57;74.94;100251.47;5082520;28;20041;-43
2021/07/27 04:52:58;;;;;;;9.63;6.63;;;;;;;17.53;75.06;100247.84;5082384;28;20040;-44
2021/07/27 04:55:25;;;;;;;8.73;7.20;;;;;;;17.58;74.85;100250.22;5082142;28;20058;-44
2021/07/27 04:57:52;;;;;;;9.35;6.88;;;;;;;17.60;74.79;100250.66;5083085;28;20052;-47
2021/07/27 05:00:21;;;;;;;9.88;7.20;;;;;;;17.61;74.97;100243.81;5081774;28;20484;-44
2021/07/27 05:02:49;;;;;;;8.73;6.65;;;;;;;17.62;75.10;100245.44;5082853;28;20048;-47
2021/07/27 05:05:16;;;;;;;9.63;6.38;;;;;;;17.67;74.81;100249.00;5082070;28;20075;-45
2021/07/27 05:07:46;;;;;;;7.68;5.82;;;;;;;17.69;74.79;100246.59;5081487;28;20437;-47
2021/07/27 05:10:13;;;;;;;11.35;8.35;;;;;;;17.77;74.67;100256.56;5083015;28;20048;-46
2021/07/27 05:12:40;;;;;;;9.27;6.10;;;;;;;17.78;74.55;100252.56;5081743;28;20048;-44
2021/07/27 05:15:07;;;;;;;9.95;6.05;;;;;;;17.78;74.54;100252.56;5081619;28;20497;-44
2021/07/27 05:17:36;;;;;;;8.27;5.40;;;;;;;17.78;74.71;100249.78;5080890;28;20040;-42
2021/07/27 05:20:04;;;;;;;8.68;6.50;;;;;;;17.76;74.73;100250.19;5081591;28;20055;-50
2021/07/27 05:22:31;;;;;;;8.02;5.60;;;;;;;17.78;74.70;100250.59;5081491;28;20801;-48
2021/07/27 05:24:59;;;;;;;6.90;5.32;;;;;;;17.81;74.86;100251.78;5081759;28;20051;-44
2021/07/27 05:27:31;;;;;;;7.38;6.32;;;;;;;17.88;74.64;100257.34;5081755;28;20048;-48
2021/07/27 05:29:58;;;;;;;10.25;6.78;;;;;;;17.92;74.34;100258.13;5079482;28;20772;-43
2021/07/27 05:32:26;;;;;;;7.25;6.53;;;;;;;17.93;74.08;100252.09;5080636;28;20048;-45
2021/07/27 05:34:53;;;;;;;10.40;7.15;;;;;;;17.98;74.07;100250.88;5080003;28;20059;-45
2021/07/27 05:37:21;;;;;;;11.65;7.22;;;;;;;18.03;74.00;100250.47;5081678;28;20101;-43
2021/07/27 05:39:48;;;;;;;7.63;6.85;;;;;;;18.06;73.92;100246.84;5081017;28;20404;-48
2021/07/27 05:42:15;;;;;;;11.18;7.43;;;;;;;18.03;73.98;100248.47;5081849;28;20044;-43
2021/07/27 05:44:42;;;;;;;13.20;8.20;;;;;;;18.03;74.03;100247.69;5079983;28;20048;-46
2021/07/27 05:47:09;;;;;;;11.70;9.05;;;;;;;18.05;74.13;100248.06;5080408;28;20117;-46
2021/07/27 05:49:37;;;;;;;12.23;8.32;;;;;;;18.05;74.15;100250.88;5080385;28;20048;-49
2021/07/27 05:52:05;;;;;;;13.73;9.95;;;;;;;18.01;74.15;100250.88;5080834;28;21121;-45
2021/07/27 05:54:32;;;;;;;12.88;9.40;;;;;;;17.99;74.46;100246.88;5081591;28;20058;-44
2021/07/27 05:56:59;;;;;;;12.85;10.35;;;;;;;18.00;74.57;100257.66;5080968;28;20055;-43
2021/07/27 05:59:25;;;;;;;14.70;9.85;;;;;;;18.01;74.47;100266.88;5081158;28;20113;-47
2021/07/27 06:01:54;;;;;;;13.27;9.57;;;;;;;18.07;74.65;100254.06;5080633;28;20083;-45
2021/07/27 06:04:21;;;;;;;12.32;8.98;;;;;;;18.08;74.31;100253.63;5080946;28;20051;-49
2021/07/27 06:06:48;;;;;;;17.90;10.20;;;;;;;18.11;74.28;100260.41;5080628;28;20044;-44
2021/07/27 06:09:15;;;;;;;12.95;9.90;;;;;;;18.13;74.36;100249.63;5063000;28;20056;-47
2021/07/27 06:11:47;;;;;;;13.77;9.95;;;;;;;18.11;74.36;100257.63;5079916;28;20052;-44
2021/07/27 06:14:16;;;;;;;14.65;10.65;;;;;;;18.07;74.43;100252.06;5080233;28;20063;-47
2021/07/27 06:16:44;;;;;;;14.93;10.68;;;;;;;18.09;74.36;100258.03;5081592;28;20134;-45
2021/07/27 06:19:11;;;;;;;13.18;9.90;;;;;;;18.15;74.41;100253.63;5079918;28;20032;-51
2021/07/27 06:21:40;;;;;;;12.70;9.80;;;;;;;18.14;74.43;100256.81;5081153;28;20044;-45
2021/07/27 06:24:09;;;;;;;17.08;10.77;;;;;;;18.17;74.23;100256.81;5080667;28;20047;-47
2021/07/27 06:26:37;;;;;;;15.93;11.23;;;;;;;18.20;74.20;100252.38;5079986;28;20076;-46
2021/07/27 06:29:04;;;;;;;13.35;10.27;;;;;;;18.20;74.09;100261.59;5080712;28;20056;-44
2021/07/27 06:31:32;;;;;;;14.10;9.15;;;;;;;18.26;74.05;100247.94;5081107;28;20542;-43
2021/07/27 06:34:00;;;;;;;13.55;9.43;;;;;;;18.22;74.43;100252.75;5079619;28;20105;-45
2021/07/27 06:36:30;;;;;;;12.20;9.85;;;;;;;18.16;74.56;100258.00;5069793;28;20211;-49
2021/07/27 06:38:58;;;;;;;15.00;10.80;;;;;;;18.21;74.60;100248.38;5071366;28;20489;-48
2021/07/27 06:41:29;;;;;;;16.13;10.90;;;;;;;18.29;74.49;100255.53;5078085;28;20051;-45
2021/07/27 06:43:58;;;;;;;11.98;8.65;;;;;;;18.32;74.44;100254.69;5076365;28;20076;-50
2021/07/27 06:46:24;;;;;;;19.40;11.15;;;;;;;18.35;74.10;100259.50;5078454;28;20048;-45
2021/07/27 06:48:51;;;;;;;18.90;11.40;;;;;;;18.41;74.00;100260.66;5077585;28;20817;-43
2021/07/27 06:51:18;;;;;;;25.58;13.77;;;;;;;18.47;73.85;100259.06;5079862;28;20036;-50
2021/07/27 06:53:45;;;;;;;24.05;13.25;;;;;;;18.52;73.63;100253.03;5077729;28;20066;-46
2021/07/27 06:56:12;;;;;;;21.35;11.50;;;;;;;18.50;73.62;100258.25;5079491;28;20043;-45
2021/07/27 06:58:41;;;;;;;19.65;11.00;;;;;;;18.58;73.64;100259.78;5081778;28;20867;-43
2021/07/27 07:01:11;;;;;;;14.30;10.77;;;;;;;18.64;73.52;100262.94;5081644;28;20044;-46
2021/07/27 07:03:42;;;;;;;11.30;9.18;;;;;;;18.67;73.45;100264.91;5083131;28;20041;-43
2021/07/27 07:06:11;;;;;;;16.52;9.38;;;;;;;18.74;73.42;100265.66;5083036;28;20063;-45
2021/07/27 07:08:39;;;;;;;18.15;9.80;;;;;;;18.76;73.20;100263.28;5081346;28;20067;-45
2021/07/27 07:11:06;;;;;;;12.82;8.43;;;;;;;18.85;72.95;100260.78;5081764;28;20122;-44
2021/07/27 07:13:33;;;;;;;14.90;9.73;;;;;;;18.96;72.82;100266.28;5083389;28;20483;-44
2021/07/27 07:16:03;;;;;;;15.75;9.13;;;;;;;19.04;72.55;100262.22;5081900;28;20167;-50
2021/07/27 07:18:30;;;;;;;11.20;8.38;;;;;;;19.11;72.54;100267.00;5082546;28;20574;-48
2021/07/27 07:20:57;;;;;;;11.35;8.73;;;;;;;19.13;72.42;100265.34;5082347;28;20504;-49
2021/07/27 07:23:24;;;;;;;20.55;9.88;;;;;;;19.10;72.15;100273.81;5082693;28;20048;-44
2021/07/27 07:25:51;;;;;;;15.02;9.18;;;;;;;19.12;72.30;100262.94;5082347;28;20040;-46
2021/07/27 07:28:21;;;;;;;18.95;8.98;;;;;;;19.16;72.12;100269.34;5081738;28;20136;-45
2021/07/27 07:30:49;;;;;;;14.75;8.75;;;;;;;19.16;71.97;100266.53;5080327;28;20134;-46
2021/07/27 07:33:16;;;;;;;13.48;8.93;;;;;;;19.15;71.81;100265.72;5082323;28;20254;-43
2021/07/27 07:35:45;;;;;;;14.27;12.63;;;;;;;19.13;71.61;100264.56;5079191;28;20071;-46
2021/07/27 07:38:11;;;;;;;11.57;9.30;;;;;;;19.08;71.43;100267.81;5081965;28;20044;-46
2021/07/27 07:40:38;;;;;;;13.88;10.10;;;;;;;19.03;71.57;100271.06;5081724;28;20067;-45
2021/07/27 07:43:05;;;;;;;10.77;9.20;;;;;;;18.97;71.56;100272.72;5081926;28;20058;-49
2021/07/27 07:45:32;;;;;;;8.30;7.35;;;;;;;18.92;71.83;100270.34;5062687;28;20138;-48
2021/07/27 07:47:59;;;;;;;14.25;7.75;;;;;;;18.91;71.87;100271.53;5081714;28;20319;-45
2021/07/27 07:50:29;;;;;;;13.98;8.32;;;;;;;18.93;71.78;100277.56;5082429;28;20050;-43
2021/07/27 07:52:57;;;;;;;9.70;7.65;;;;;;;19.02;71.74;100263.84;5081039;28;20131;-51
2021/07/27 07:55:24;;;;;;;13.32;8.55;;;;;;;19.00;71.37;100269.88;5082003;28;20181;-43
2021/07/27 07:57:51;;;;;;;13.45;8.70;;;;;;;18.96;71.54;100266.28;5079629;28;20047;-46
2021/07/27 08:00:19;;;;;;;11.93;7.80;;;;;;;19.10;71.46;100271.00;5081304;28;20044;-50
2021/07/27 08:02:47;;;;;;;11.75;7.00;;;;;;;19.14;71.44;100266.16;5080729;28;20628;-48
2021/07/27 08:05:15;;;;;;;10.77;7.05;;;;;;;19.14;70.96;100263.34;5081025;28;20052;-44
2021/07/27 08:07:41;;;;;;;9.10;5.95;;;;;;;19.19;70.97;100266.50;5078451;28;20048;-44
2021/07/27 08:10:09;;;;;;;10.20;6.55;;;;;;;19.33;71.01;100271.16;5081322;28;20125;-44
2021/07/27 08:12:36;;;;;;;11.23;6.95;;;;;;;19.48;70.90;100274.69;5079944;28;20048;-45
2021/07/27 08:15:04;;;;;;;10.88;7.18;;;;;;;19.58;70.36;100274.56;5080659;28;20048;-46
2021/07/27 08:17:30;;;;;;;35.80;10.18;;;;;;;19.61;70.39;100273.75;5080373;28;20052;-48
2021/07/27 08:19:58;;;;;;;13.40;7.72;;;;;;;19.72;70.12;100279.25;5080717;28;20044;-44
2021/07/27 08:22:25;;;;;;;12.23;7.85;;;;;;;19.86;69.93;100277.03;5079543;28;20061;-45
2021/07/27 08:24:52;;;;;;;8.57;7.22;;;;;;;20.02;69.96;100282.88;5079956;28;20052;-46
2021/07/27 08:27:20;;;;;;;9.38;7.63;;;;;;;20.19;69.83;100275.44;5079829;28;20077;-45
2021/07/27 08:29:47;;;;;;;11.25;7.35;;;;;;;20.36;69.40;100280.03;5079722;28;20089;-47
2021/07/27 08:32:14;;;;;;;9.88;6.85;;;;;;;20.47;68.87;100285.53;5062434;28;20055;-45
2021/07/27 08:34:44;;;;;;;10.68;7.25;;;;;;;20.56;68.49;100280.19;5080293;28;20040;-49
2021/07/27 08:37:11;;;;;;;11.45;7.70;;;;;;;20.44;68.14;100286.34;5080392;28;20044;-44
2021/07/27 08:39:40;;;;;;;12.60;8.35;;;;;;;20.39;67.92;100284.03;5080132;28;20048;-48
2021/07/27 08:42:08;;;;;;;11.90;8.02;;;;;;;20.48;67.64;100281.50;5080411;28;20043;-44
2021/07/27 08:44:36;;;;;;;14.15;9.25;;;;;;;20.60;67.24;100278.09;5080416;28;20139;-51
2021/07/27 08:47:05;;;;;;;13.65;8.93;;;;;;;20.65;67.14;100281.22;5080738;28;20143;-49
2021/07/27 08:49:33;;;;;;;13.30;8.85;;;;;;;20.79;66.63;100270.97;5081250;28;20044;-45
2021/07/27 08:52:01;;;;;;;11.23;7.45;;;;;;;21.13;66.48;100272.44;5063063;28;20054;-46
2021/07/27 08:54:28;;;;;;;11.63;8.10;;;;;;;21.52;65.84;100265.31;5081196;28;20394;-46
2021/07/27 08:56:55;;;;;;;10.20;7.40;;;;;;;21.92;65.56;100255.72;5080564;28;20613;-48
2021/07/27 08:59:24;;;;;;;15.77;8.70;;;;;;;22.27;64.73;100260.56;5081158;28;20493;-45
2021/07/27 09:01:54;;;;;;;14.45;10.10;;;;;;;22.61;63.64;100256.59;5081210;28;20059;-51
2021/07/27 09:04:28;;;;;;;8.20;7.00;;;;;;;22.85;62.82;100258.03;5060577;28;20055;-47
2021/07/27 09:07:02;;;;;;;8.45;6.85;;;;;;;23.00;61.86;100262.13;5079289;28;20059;-52
2021/07/27 09:09:33;;;;;;;7.85;5.82;;;;;;;23.11;61.89;100257.00;5080074;28;20659;-48
2021/07/27 09:12:03;;;;;;;12.70;6.93;;;;;;;23.28;61.08;100260.59;5080074;28;20407;-44
2021/07/27 09:14:30;;;;;;;10.48;6.80;;;;;;;23.41;60.38;100259.44;5079442;28;20044;-46
2021/07/27 09:16:58;;;;;;;12.32;7.03;;;;;;;23.59;59.61;100264.63;5078841;28;20040;-47
2021/07/27 09:19:25;;;;;;;11.23;7.00;;;;;;;23.91;59.13;100258.06;5079937;28;20048;-46
2021/07/27 09:22:18;;;;;;;14.57;6.32;;;;;;;24.54;57.10;100266.72;5080741;28;20089;-46
2021/07/27 09:24:45;;;;;;;14.15;6.70;;;;;;;24.83;57.05;100260.97;5075380;28;20052;-50
2021/07/27 09:27:13;;;;;;;10.50;6.05;;;;;;;25.22;56.30;100266.91;5076918;28;20059;-50
2021/07/27 09:29:45;;;;;;;6.95;4.88;;;;;;;25.57;53.55;100264.13;5080411;28;20874;-50
2021/07/27 09:32:17;;;;;;;7.50;5.13;;;;;;;25.40;54.30;100267.09;5079139;28;20040;-53
2021/07/27 09:34:44;;;;;;;5.97;5.32;;;;;;;25.09;54.92;100268.19;5078979;28;20043;-48
2021/07/27 09:37:13;;;;;;;7.32;5.20;;;;;;;24.61;54.69;100267.28;5078957;28;21916;-51
2021/07/27 09:39:40;;;;;;;8.27;4.90;;;;;;;24.06;54.91;100268.53;5080420;28;20050;-50
2021/07/27 09:42:09;;;;;;;6.38;4.93;;;;;;;23.70;55.41;100272.78;5078289;28;20060;-47
2021/07/27 09:44:38;;;;;;;7.03;4.85;;;;;;;23.47;55.62;100268.19;5080002;28;20047;-48
2021/07/27 09:47:06;;;;;;;6.05;4.13;;;;;;;23.18;56.10;100267.31;5078523;28;20048;-46
2021/07/27 09:49:33;;;;;;;5.32;4.15;;;;;;;22.96;56.84;100267.06;5078637;28;20040;-46
2021/07/27 09:52:01;;;;;;;5.25;4.07;;;;;;;22.82;56.78;100256.13;5078829;28;20063;-48
2021/07/27 09:54:28;;;;;;;6.40;3.67;;;;;;;22.62;57.04;100264.63;5079358;28;20048;-46
2021/07/27 09:56:56;;;;;;;3.30;3.00;;;;;;;22.52;57.35;100259.22;5078978;28;20051;-48
2021/07/27 09:59:24;;;;;;;5.80;4.03;;;;;;;22.45;57.40;100263.78;5079155;28;20133;-45
2021/07/27 10:01:58;;;;;;;4.07;3.22;;;;;;;22.36;57.45;100259.97;5079321;28;20045;-45
2021/07/27 10:04:34;;;;;;;5.20;3.80;;;;;;;22.15;57.97;100261.25;5078558;28;20135;-47
2021/07/27 10:07:02;;;;;;;4.60;3.38;;;;;;;22.14;58.08;100253.22;5078749;28;20079;-49
2021/07/27 10:09:35;;;;;;;6.07;3.88;;;;;;;22.13;58.32;100255.25;5060319;28;20055;-50
2021/07/27 10:12:13;;;;;;;7.30;3.60;;;;;;;22.05;58.89;100253.81;5061299;28;20550;-45
2021/07/27 10:14:45;;;;;;;4.20;3.42;;;;;;;22.11;58.69;100252.06;5079765;28;20044;-46
2021/07/27 10:17:16;;;;;;;4.10;2.92;;;;;;;22.16;58.42;100245.91;5078827;28;20435;-46
2021/07/27 10:19:50;;;;;;;5.63;3.30;;;;;;;22.16;58.52;100243.09;5078383;28;20044;-47
2021/07/27 10:22:19;;;;;;;7.95;3.55;;;;;;;22.12;58.93;100247.22;5078989;28;20504;-46
2021/07/27 10:24:50;;;;;;;8.07;3.15;;;;;;;22.21;58.68;100245.38;5079334;28;20576;-46
2021/07/27 10:27:21;;;;;;;5.47;3.47;;;;;;;22.24;58.45;100243.75;5078300;28;20048;-50
2021/07/27 10:30:10;;;;;;;5.90;3.00;;;;;;;22.33;58.43;100250.38;5077696;28;20086;-47
2021/07/27 10:32:41;;;;;;;3.95;3.00;;;;;;;22.36;58.40;100246.69;5077870;28;20492;-46
2021/07/27 10:35:26;;;;;;;4.90;3.72;;;;;;;22.42;57.75;100242.09;5078786;28;20055;-51
2021/07/27 10:38:14;;;;;;;3.85;2.97;;;;;;;22.42;58.03;100253.38;5078452;28;20040;-51
2021/07/27 10:40:44;;;;;;;3.42;2.97;;;;;;;22.60;58.03;100244.50;5078993;28;20540;-50
2021/07/27 10:43:23;;;;;;;4.15;3.70;;;;;;;22.65;56.83;100248.88;5076637;28;20052;-48
2021/07/27 10:46:00;;;;;;;9.52;3.90;;;;;;;22.72;56.84;100246.66;5077298;28;20052;-47
2021/07/27 10:48:34;;;;;;;3.55;3.25;;;;;;;22.78;56.70;100239.28;5078565;28;20032;-48
2021/07/27 10:51:02;;;;;;;5.38;3.78;;;;;;;22.74;56.67;100240.59;5078742;28;20067;-48
2021/07/27 10:53:33;;;;;;;3.47;2.88;;;;;;;22.67;56.30;100246.38;5077759;28;20038;-48
2021/07/27 10:56:10;;;;;;;5.18;3.15;;;;;;;22.68;56.27;100242.34;5078206;28;20086;-47
2021/07/27 10:58:37;;;;;;;5.15;2.88;;;;;;;22.61;56.64;100245.31;5078284;28;20089;-48
2021/07/27 11:01:08;;;;;;;5.82;2.90;;;;;;;22.68;56.54;100237.50;5078591;28;20216;-45
2021/07/27 11:03:36;;;;;;;4.75;2.92;;;;;;;22.73;56.69;100241.81;5078764;28;20093;-48
2021/07/27 11:06:04;;;;;;;3.80;3.50;;;;;;;22.73;56.30;100250.28;5077660;28;20047;-47
2021/07/27 11:08:31;;;;;;;5.65;3.10;;;;;;;22.70;56.25;100245.50;5076929;28;20066;-45
2021/07/27 11:11:13;;;;;;;5.68;2.90;;;;;;;22.71;56.15;100233.81;5078793;28;20132;-46
2021/07/27 11:13:40;;;;;;;5.55;3.05;;;;;;;22.77;56.54;100231.25;5077495;28;20040;-48
2021/07/27 11:16:07;;;;;;;3.92;3.17;;;;;;;22.81;56.32;100226.31;5078127;28;20040;-48
2021/07/27 11:18:34;;;;;;;4.72;2.53;;;;;;;22.90;56.40;100234.97;5078482;28;20487;-48
2021/07/27 11:21:01;;;;;;;2.90;2.60;;;;;;;22.96;55.87;100227.53;5077093;28;20048;-52
2021/07/27 11:23:34;;;;;;;4.35;2.85;;;;;;;22.89;55.14;100239.81;5077677;28;20048;-44
2021/07/27 11:26:02;;;;;;;3.30;3.00;;;;;;;22.85;56.04;100243.94;5079497;28;20077;-48
2021/07/27 11:28:39;;;;;;;8.82;3.38;;;;;;;22.74;55.60;100255.47;5077933;28;20045;-45
2021/07/27 11:31:17;;;;;;;4.78;3.75;;;;;;;22.64;55.95;100247.25;5077137;28;20109;-48
2021/07/27 11:33:51;;;;;;;7.05;3.22;;;;;;;22.54;56.23;100256.75;5077524;28;20044;-44
2021/07/27 11:36:26;;;;;;;6.80;3.10;;;;;;;22.49;55.70;100249.59;5078650;28;20048;-45
2021/07/27 11:39:06;;;;;;;5.15;3.08;;;;;;;22.43;55.56;100248.53;5078182;28;20890;-51
2021/07/27 11:41:33;;;;;;;2.95;1.92;;;;;;;22.31;55.80;100244.38;5077428;28;20036;-49
2021/07/27 11:44:01;;;;;;;3.10;2.35;;;;;;;22.12;55.63;100244.41;5079799;28;20055;-45
2021/07/27 11:46:34;;;;;;;3.03;2.25;;;;;;;21.93;55.98;100233.94;5063759;28;20079;-50
2021/07/27 11:49:07;;;;;;;2.30;1.80;;;;;;;21.98;55.98;100237.03;5081531;28;20797;-47
2021/07/27 11:51:34;;;;;;;4.85;2.50;;;;;;;22.05;56.11;100224.84;5082033;28;20036;-49
2021/07/27 11:54:01;;;;;;;3.55;2.63;;;;;;;22.11;56.52;100229.50;5081375;28;20133;-48
2021/07/27 11:56:28;;;;;;;4.13;2.42;;;;;;;22.19;56.30;100224.50;5080285;28;20044;-52